createdAt,value
2022-10-26T00:01:27.915Z,31.07
2022-10-26T00:03:56.742Z,30.57
2022-10-26T00:06:26.115Z,29.57
2022-10-26T00:08:55.045Z,31.63
2022-10-26T00:11:23.481Z,30.43
2022-10-26T00:13:51.800Z,30.27
2022-10-26T00:16:22.597Z,31.60
2022-10-26T00:18:50.713Z,32.77
2022-10-26T00:21:19.339Z,32.20
2022-10-26T00:23:47.499Z,35.20
2022-10-26T00:26:16.006Z,33.47
2022-10-26T00:28:44.100Z,32.23
2022-10-26T00:31:15.034Z,31.10
2022-10-26T00:33:44.770Z,31.13
2022-10-26T00:36:14.045Z,30.97
2022-10-26T00:38:46.082Z,31.47
2022-10-26T00:41:16.066Z,32.80
2022-10-26T00:43:44.200Z,31.60
2022-10-26T00:46:14.717Z,29.87
2022-10-26T00:48:46.068Z,30.00
2022-10-26T00:51:17.400Z,32.23
2022-10-26T00:53:45.554Z,30.27
2022-10-26T00:56:13.918Z,31.20
2022-10-26T00:58:42.103Z,30.00
2022-10-26T01:01:10.549Z,30.47
2022-10-26T01:03:38.769Z,30.63
2022-10-26T01:06:09.607Z,29.60
2022-10-26T01:08:38.009Z,31.77
2022-10-26T01:11:06.363Z,30.87
2022-10-26T01:13:35.915Z,29.80
2022-10-26T01:16:11.375Z,29.87
2022-10-26T01:18:44.357Z,29.60
2022-10-26T01:21:45.331Z,27.57
2022-10-26T01:24:39.183Z,27.50
2022-10-26T01:27:17.175Z,29.37
2022-10-26T01:30:25.399Z,28.63
2022-10-26T01:33:04.554Z,27.10
2022-10-26T01:35:34.490Z,26.47
2022-10-26T01:38:06.359Z,27.57
2022-10-26T01:40:36.756Z,26.50
2022-10-26T01:43:07.291Z,25.97
2022-10-26T01:45:37.257Z,24.73
2022-10-26T01:48:05.906Z,27.27
2022-10-26T01:50:33.976Z,25.17
2022-10-26T01:53:02.158Z,26.60
2022-10-26T01:55:46.306Z,25.33
2022-10-26T01:58:55.070Z,24.90
2022-10-26T02:01:36.835Z,25.53
2022-10-26T02:04:09.336Z,24.77
2022-10-26T02:06:41.195Z,24.67
2022-10-26T02:09:12.640Z,24.23
2022-10-26T02:11:41.856Z,26.67
2022-10-26T02:16:56.537Z,27.10
2022-10-26T02:19:32.383Z,25.80
2022-10-26T02:22:04.307Z,27.00
2022-10-26T02:24:32.660Z,26.20
2022-10-26T02:27:01.048Z,25.63
2022-10-26T02:29:29.374Z,24.57
2022-10-26T02:31:58.914Z,26.50
2022-10-26T02:34:27.858Z,27.23
2022-10-26T02:36:57.066Z,25.90
2022-10-26T02:39:25.350Z,26.03
2022-10-26T02:41:53.548Z,23.23
2022-10-26T02:44:24.572Z,24.47
2022-10-26T02:46:52.772Z,24.47
2022-10-26T02:49:22.277Z,24.77
2022-10-26T02:51:51.716Z,26.30
2022-10-26T02:54:21.239Z,25.33
2022-10-26T02:56:53.264Z,25.27
2022-10-26T02:59:22.040Z,25.07
2022-10-26T03:01:50.801Z,26.87
2022-10-26T03:04:19.257Z,23.50
2022-10-26T03:06:55.161Z,26.30
2022-10-26T03:09:25.467Z,24.40
2022-10-26T03:11:53.961Z,24.83
2022-10-26T03:14:22.254Z,25.50
2022-10-26T03:19:19.580Z,26.40
2022-10-26T03:21:47.875Z,26.63
2022-10-26T03:24:17.520Z,27.70
2022-10-26T03:26:45.816Z,26.67
2022-10-26T03:29:13.898Z,25.17
2022-10-26T03:31:42.007Z,25.70
2022-10-26T03:34:10.372Z,24.77
2022-10-26T03:36:38.542Z,22.90
2022-10-26T03:39:06.878Z,23.50
2022-10-26T03:41:36.430Z,26.30
2022-10-26T03:44:04.795Z,27.60
2022-10-26T03:46:33.075Z,31.20
2022-10-26T03:49:01.161Z,25.63
2022-10-26T03:51:29.246Z,26.60
2022-10-26T03:53:57.512Z,26.07
2022-10-26T03:56:26.018Z,26.97
2022-10-26T03:58:55.540Z,27.63
2022-10-26T04:01:24.083Z,26.33
2022-10-26T04:03:52.251Z,25.87
2022-10-26T04:06:20.471Z,25.47
2022-10-26T04:08:48.638Z,23.37
2022-10-26T04:11:16.828Z,23.10
2022-10-26T04:13:44.945Z,22.87
2022-10-26T04:16:14.595Z,23.43
2022-10-26T04:18:42.738Z,24.33
2022-10-26T04:21:11.048Z,22.93
2022-10-26T04:23:39.174Z,23.80
2022-10-26T04:26:07.457Z,22.80
2022-10-26T04:28:35.693Z,21.67
2022-10-26T04:31:03.818Z,21.93
2022-10-26T04:33:33.376Z,21.83
2022-10-26T04:36:02.065Z,23.17
2022-10-26T04:38:30.244Z,22.87
2022-10-26T04:40:58.400Z,22.50
2022-10-26T04:43:26.675Z,21.27
2022-10-26T04:45:56.810Z,21.00
2022-10-26T04:51:01.454Z,21.63
2022-10-26T04:53:29.707Z,23.43
2022-10-26T04:55:58.300Z,23.00
2022-10-26T04:58:26.497Z,22.10
2022-10-26T05:00:54.723Z,21.80
2022-10-26T05:03:22.943Z,23.67
2022-10-26T05:05:51.124Z,23.77
2022-10-26T05:08:20.917Z,21.77
2022-10-26T05:10:50.180Z,22.90
2022-10-26T05:13:18.549Z,23.70
2022-10-26T05:15:46.751Z,23.17
2022-10-26T05:18:14.994Z,22.30
2022-10-26T05:20:43.440Z,23.50
2022-10-26T05:23:12.567Z,22.73
2022-10-26T05:25:42.123Z,23.60
2022-10-26T05:28:13.477Z,21.83
2022-10-26T05:30:41.747Z,21.57
2022-10-26T05:33:10.837Z,22.30
2022-10-26T05:35:39.035Z,23.20
2022-10-26T05:38:09.996Z,21.53
2022-10-26T05:40:38.149Z,22.77
2022-10-26T05:43:07.743Z,22.73
2022-10-26T05:45:35.947Z,21.90
2022-10-26T05:48:04.122Z,23.23
2022-10-26T05:50:32.719Z,23.43
2022-10-26T05:53:00.914Z,21.50
2022-10-26T05:55:29.595Z,21.30
2022-10-26T05:57:58.365Z,22.93
2022-10-26T06:00:29.161Z,22.97
2022-10-26T06:03:09.113Z,22.77
2022-10-26T06:05:40.304Z,22.17
2022-10-26T06:08:10.553Z,21.20
2022-10-26T06:10:39.710Z,23.70
2022-10-26T06:13:08.531Z,24.37
2022-10-26T06:15:42.452Z,23.17
2022-10-26T06:18:15.514Z,23.13
2022-10-26T06:20:50.877Z,24.53
2022-10-26T06:23:30.769Z,24.53
2022-10-26T06:26:00.950Z,25.77
2022-10-26T06:28:34.267Z,25.23
2022-10-26T06:31:03.903Z,25.53
2022-10-26T06:33:32.366Z,25.47
2022-10-26T06:36:10.726Z,26.43
2022-10-26T06:38:38.850Z,26.53
2022-10-26T06:41:07.354Z,25.53
2022-10-26T06:43:36.757Z,26.30
2022-10-26T06:46:12.878Z,25.03
2022-10-26T06:48:48.512Z,25.37
2022-10-26T06:51:17.434Z,25.50
2022-10-26T06:53:48.072Z,25.07
2022-10-26T06:56:16.378Z,23.70
2022-10-26T06:58:44.526Z,24.87
2022-10-26T07:01:14.220Z,26.07
2022-10-26T07:03:42.519Z,26.80
2022-10-26T07:06:11.035Z,27.43
2022-10-26T07:08:39.279Z,26.20
2022-10-26T07:11:09.383Z,26.97
2022-10-26T07:13:37.497Z,30.07
2022-10-26T07:16:05.992Z,30.90
2022-10-26T07:18:35.532Z,31.00
2022-10-26T07:21:03.653Z,27.27
2022-10-26T07:23:31.744Z,26.60
2022-10-26T07:26:00.928Z,25.10
2022-10-26T07:28:29.123Z,25.17
2022-10-26T07:30:57.153Z,25.47
2022-10-26T07:33:25.246Z,23.77
2022-10-26T07:35:56.135Z,23.47
2022-10-26T07:38:24.179Z,21.80
2022-10-26T07:40:54.351Z,23.97
2022-10-26T07:43:22.505Z,21.17
2022-10-26T07:45:51.520Z,21.73
2022-10-26T07:48:19.663Z,23.13
2022-10-26T07:50:47.733Z,20.63
2022-10-26T07:53:17.217Z,21.10
2022-10-26T07:55:45.302Z,19.77
2022-10-26T07:58:13.338Z,19.77
2022-10-26T08:00:41.604Z,20.60
2022-10-26T08:03:10.031Z,18.60
2022-10-26T08:05:38.081Z,18.33
2022-10-26T08:08:06.829Z,17.97
2022-10-26T08:10:36.241Z,16.73
2022-10-26T08:13:04.396Z,15.93
2022-10-26T08:15:32.489Z,17.10
2022-10-26T08:18:00.538Z,16.33
2022-10-26T08:20:28.659Z,16.23
2022-10-26T08:22:57.626Z,15.53
2022-10-26T08:25:25.708Z,15.40
2022-10-26T08:27:55.471Z,14.23
2022-10-26T08:30:23.627Z,13.40
2022-10-26T08:32:59.056Z,12.53
2022-10-26T08:35:27.134Z,12.20
2022-10-26T08:37:55.283Z,11.37
2022-10-26T08:40:26.453Z,12.57
2022-10-26T08:42:58.378Z,11.30
2022-10-26T08:45:35.703Z,10.67
2022-10-26T08:48:06.648Z,10.33
2022-10-26T08:50:40.489Z,11.07
2022-10-26T08:53:14.607Z,10.20
2022-10-26T08:55:44.860Z,9.70
2022-10-26T08:58:16.739Z,9.70
2022-10-26T09:00:45.125Z,11.27
2022-10-26T09:03:14.465Z,11.67
2022-10-26T09:05:58.591Z,10.63
2022-10-26T09:08:32.052Z,10.20
2022-10-26T09:11:03.817Z,8.90
2022-10-26T09:13:36.983Z,8.70
2022-10-26T09:16:07.692Z,8.83
2022-10-26T09:18:42.426Z,8.87
2022-10-26T09:21:14.454Z,8.80
2022-10-26T09:23:51.457Z,8.17
2022-10-26T09:26:28.362Z,7.03
2022-10-26T09:28:58.030Z,8.03
2022-10-26T09:31:26.230Z,7.63
2022-10-26T09:33:54.265Z,6.33
2022-10-26T09:36:23.377Z,6.63
2022-10-26T09:38:54.746Z,5.80
2022-10-26T09:41:27.137Z,5.80
2022-10-26T09:44:03.870Z,6.83
2022-10-26T09:46:33.481Z,6.13
2022-10-26T09:51:36.326Z,4.70
2022-10-26T09:54:09.210Z,6.03
2022-10-26T09:56:37.542Z,5.13
2022-10-26T09:59:07.092Z,5.17
2022-10-26T10:01:38.661Z,4.07
2022-10-26T10:04:12.244Z,4.17
2022-10-26T10:06:40.477Z,3.87
2022-10-26T10:09:11.302Z,3.80
2022-10-26T10:11:40.948Z,4.20
2022-10-26T10:14:11.023Z,3.87
2022-10-26T10:16:39.105Z,3.30
2022-10-26T10:19:07.244Z,3.40
2022-10-26T10:21:38.887Z,2.90
2022-10-26T10:24:21.999Z,3.33
2022-10-26T10:26:58.136Z,3.03
2022-10-26T10:29:28.499Z,3.13
2022-10-26T10:32:00.330Z,2.70
2022-10-26T10:34:28.455Z,2.77
2022-10-26T10:36:56.576Z,2.60
2022-10-26T10:39:37.594Z,2.77
2022-10-26T10:42:06.421Z,2.40
2022-10-26T10:44:36.112Z,2.70
2022-10-26T10:47:04.604Z,2.73
2022-10-26T10:49:32.722Z,2.40
2022-10-26T10:52:00.998Z,2.10
2022-10-26T10:54:30.565Z,2.63
2022-10-26T10:57:03.061Z,2.70
2022-10-26T10:59:44.055Z,2.63
2022-10-26T11:02:59.056Z,2.87
2022-10-26T11:05:39.682Z,2.57
2022-10-26T11:08:09.308Z,2.73
2022-10-26T11:10:39.496Z,3.00
2022-10-26T11:13:11.711Z,2.60
2022-10-26T11:15:41.179Z,2.50
2022-10-26T11:18:10.870Z,3.00
2022-10-26T11:20:40.976Z,2.40
2022-10-26T11:23:11.284Z,2.47
2022-10-26T11:25:43.036Z,2.47
2022-10-26T11:28:15.135Z,2.10
2022-10-26T11:30:47.034Z,2.40
2022-10-26T11:33:17.368Z,2.57
2022-10-26T11:35:47.123Z,2.30
2022-10-26T11:38:23.785Z,2.37
2022-10-26T11:41:02.873Z,2.33
2022-10-26T11:43:34.710Z,2.53
2022-10-26T11:46:06.934Z,2.07
2022-10-26T11:48:37.506Z,2.20
2022-10-26T11:51:05.919Z,2.33
2022-10-26T11:53:37.355Z,2.50
2022-10-26T11:56:05.892Z,2.43
2022-10-26T11:58:34.189Z,1.97
2022-10-26T12:01:03.142Z,2.60
2022-10-26T12:03:33.864Z,2.63
2022-10-26T12:06:02.010Z,2.80
2022-10-26T12:08:32.175Z,2.63
2022-10-26T12:11:03.701Z,2.77
2022-10-26T12:13:33.768Z,3.47
2022-10-26T12:16:04.581Z,11.00
2022-10-26T12:18:56.383Z,5.57
2022-10-26T12:21:26.603Z,4.17
2022-10-26T12:23:55.969Z,4.00
2022-10-26T12:26:40.499Z,2.87
2022-10-26T12:29:36.961Z,2.33
2022-10-26T12:32:06.827Z,2.30
2022-10-26T12:35:00.138Z,2.33
2022-10-26T12:37:36.551Z,2.80
2022-10-26T12:40:42.892Z,2.40
2022-10-26T12:43:37.272Z,3.20
2022-10-26T12:46:42.229Z,2.20
2022-10-26T12:49:56.435Z,2.00
2022-10-26T12:52:30.807Z,2.03
2022-10-26T12:55:28.909Z,2.53
2022-10-26T12:58:04.803Z,2.00
2022-10-26T13:00:33.056Z,2.90
2022-10-26T13:03:09.331Z,3.97
2022-10-26T13:05:56.359Z,3.63
2022-10-26T13:08:26.187Z,3.00
2022-10-26T13:11:03.147Z,2.10
2022-10-26T13:13:31.871Z,2.87
2022-10-26T13:16:00.391Z,2.20
2022-10-26T13:18:28.435Z,2.40
2022-10-26T13:21:02.476Z,2.00
2022-10-26T13:23:33.389Z,2.20
2022-10-26T13:26:09.511Z,2.00
2022-10-26T13:28:48.543Z,2.93
2022-10-26T13:31:56.908Z,2.33
2022-10-26T13:34:26.255Z,3.53
2022-10-26T13:36:58.860Z,2.10
2022-10-26T13:39:30.764Z,2.00
2022-10-26T13:41:59.629Z,2.27
2022-10-26T13:44:29.034Z,2.20
2022-10-26T13:46:59.697Z,2.10
2022-10-26T13:49:30.305Z,2.10
2022-10-26T13:51:58.386Z,2.00
2022-10-26T13:54:29.835Z,2.50
2022-10-26T13:57:03.390Z,2.40
2022-10-26T13:59:32.152Z,3.50
2022-10-26T14:02:16.826Z,2.20
2022-10-26T14:04:48.136Z,1.90
2022-10-26T14:07:23.151Z,2.20
2022-10-26T14:09:54.250Z,2.30
2022-10-26T14:12:22.431Z,2.50
2022-10-26T14:14:50.540Z,2.50
2022-10-26T14:17:21.074Z,2.23
2022-10-26T14:19:49.410Z,1.90
2022-10-26T14:22:23.159Z,1.93
2022-10-26T14:27:24.873Z,2.00
2022-10-26T14:30:20.369Z,2.03
2022-10-26T14:32:41.605Z,1.87
2022-10-26T14:35:13.571Z,2.27
2022-10-26T14:37:44.874Z,2.13
2022-10-26T14:40:17.396Z,2.17
2022-10-26T14:42:47.179Z,1.90
2022-10-26T14:45:47.162Z,2.40
2022-10-26T14:48:26.433Z,2.17
2022-10-26T14:51:01.938Z,2.10
2022-10-26T14:53:36.111Z,2.00
2022-10-26T14:56:06.264Z,2.53
2022-10-26T14:58:35.361Z,2.00
2022-10-26T15:01:31.795Z,2.23
2022-10-26T15:04:04.090Z,2.03
2022-10-26T15:06:34.285Z,2.20
2022-10-26T15:09:04.555Z,2.00
2022-10-26T15:11:34.860Z,2.60
2022-10-26T15:14:03.133Z,1.90
2022-10-26T15:16:33.122Z,2.40
2022-10-26T15:19:02.311Z,2.17
2022-10-26T15:21:32.718Z,2.87
2022-10-26T15:24:00.798Z,2.57
2022-10-26T15:26:28.978Z,2.70
2022-10-26T15:28:59.412Z,3.27
2022-10-26T15:31:30.931Z,3.43
2022-10-26T15:34:13.718Z,3.97
2022-10-26T15:36:41.927Z,5.83
2022-10-26T15:39:10.803Z,3.40
2022-10-26T15:41:41.566Z,3.17
2022-10-26T15:44:14.570Z,3.47
2022-10-26T15:46:42.832Z,3.90
2022-10-26T15:49:16.599Z,3.67
2022-10-26T15:51:46.421Z,4.03
2022-10-26T15:54:14.702Z,4.17
2022-10-26T15:56:43.968Z,4.13
2022-10-26T15:59:18.349Z,4.50
2022-10-26T16:01:46.687Z,4.57
2022-10-26T16:04:14.928Z,4.87
2022-10-26T16:06:43.279Z,4.90
2022-10-26T16:09:13.929Z,4.57
2022-10-26T16:11:42.296Z,4.40
2022-10-26T16:14:10.598Z,4.87
2022-10-26T16:16:40.192Z,4.77
2022-10-26T16:19:30.759Z,5.20
2022-10-26T16:21:58.626Z,4.73
2022-10-26T16:24:26.838Z,4.27
2022-10-26T16:26:55.140Z,4.97
2022-10-26T16:29:23.224Z,4.07
2022-10-26T16:31:52.742Z,4.73
2022-10-26T16:34:20.905Z,5.93
2022-10-26T16:36:49.054Z,4.73
2022-10-26T16:39:17.319Z,6.70
2022-10-26T16:41:45.547Z,6.83
2022-10-26T16:44:13.986Z,6.80
2022-10-26T16:46:42.246Z,6.27
2022-10-26T16:49:11.840Z,5.47
2022-10-26T16:51:40.010Z,5.40
2022-10-26T16:54:08.166Z,5.53
2022-10-26T16:56:36.416Z,5.53
2022-10-26T16:59:04.515Z,5.37
2022-10-26T17:01:32.913Z,4.67
2022-10-26T17:06:38.180Z,4.67
2022-10-26T17:09:06.254Z,4.70
2022-10-26T17:11:34.498Z,5.47
2022-10-26T17:14:02.816Z,5.37
2022-10-26T17:16:31.010Z,4.97
2022-10-26T17:18:59.163Z,5.37
2022-10-26T17:21:30.195Z,4.87
2022-10-26T17:23:59.761Z,5.57
2022-10-26T17:26:28.203Z,5.30
2022-10-26T17:28:57.466Z,6.23
2022-10-26T17:31:26.173Z,7.27
2022-10-26T17:33:54.264Z,8.53
2022-10-26T17:36:23.465Z,9.70
2022-10-26T17:38:52.560Z,9.90
2022-10-26T17:41:22.887Z,9.83
2022-10-26T17:43:51.196Z,8.60
2022-10-26T17:46:20.026Z,7.57
2022-10-26T17:48:48.219Z,7.10
2022-10-26T17:51:16.943Z,7.63
2022-10-26T17:53:47.294Z,7.80
2022-10-26T17:56:17.556Z,7.97
2022-10-26T17:58:47.034Z,8.67
2022-10-26T18:01:15.339Z,8.97
2022-10-26T18:03:43.569Z,8.90
2022-10-26T18:06:12.264Z,8.07
2022-10-26T18:08:40.647Z,9.40
2022-10-26T18:11:09.590Z,10.10
2022-10-26T18:13:38.071Z,9.73
2022-10-26T18:16:09.006Z,10.07
2022-10-26T18:18:37.410Z,11.80
2022-10-26T18:21:06.278Z,11.80
2022-10-26T18:23:34.398Z,11.63
2022-10-26T18:26:08.344Z,11.80
2022-10-26T18:28:39.720Z,11.53
2022-10-26T18:31:09.971Z,11.57
2022-10-26T18:33:38.878Z,12.00
2022-10-26T18:36:08.292Z,11.77
2022-10-26T18:38:36.610Z,11.23
2022-10-26T18:41:04.860Z,11.47
2022-10-26T18:43:33.026Z,11.40
2022-10-26T18:46:05.283Z,11.57
2022-10-26T18:48:34.724Z,11.97
2022-10-26T18:51:06.216Z,11.00
2022-10-26T18:53:34.641Z,10.53
2022-10-26T18:56:03.154Z,11.60
2022-10-26T18:58:32.016Z,10.90
2022-10-26T19:01:07.532Z,10.93
2022-10-26T19:03:37.319Z,11.43
2022-10-26T19:06:12.462Z,12.50
2022-10-26T19:08:40.729Z,13.53
2022-10-26T19:11:09.635Z,12.43
2022-10-26T19:13:37.803Z,13.30
2022-10-26T19:16:12.658Z,12.23
2022-10-26T19:18:46.839Z,12.43
2022-10-26T19:21:15.741Z,13.80
2022-10-26T19:23:45.296Z,13.63
2022-10-26T19:26:15.569Z,12.53
2022-10-26T19:28:43.704Z,12.70
2022-10-26T19:31:13.790Z,12.23
2022-10-26T19:33:42.164Z,14.03
2022-10-26T19:36:12.732Z,15.00
2022-10-26T19:38:41.037Z,16.33
2022-10-26T19:41:10.113Z,17.83
2022-10-26T19:43:38.308Z,18.60
2022-10-26T19:46:07.714Z,19.03
2022-10-26T19:48:35.948Z,19.97
2022-10-26T19:51:04.062Z,19.77
2022-10-26T19:53:33.597Z,20.77
2022-10-26T19:56:02.105Z,20.47
2022-10-26T19:58:31.001Z,21.37
2022-10-26T20:00:59.489Z,23.63
2022-10-26T20:03:29.050Z,23.43
2022-10-26T20:05:57.886Z,24.67
2022-10-26T20:08:26.146Z,26.13
2022-10-26T20:10:56.595Z,24.20
2022-10-26T20:13:25.080Z,22.27
2022-10-26T20:15:53.264Z,22.07
2022-10-26T20:18:21.364Z,25.23
2022-10-26T20:20:49.710Z,23.57
2022-10-26T20:23:17.871Z,23.87
2022-10-26T20:25:46.957Z,22.50
2022-10-26T20:28:16.993Z,21.27
2022-10-26T20:30:45.488Z,22.33
2022-10-26T20:33:13.843Z,22.20
2022-10-26T20:35:42.248Z,23.33
2022-10-26T20:38:17.591Z,21.53
2022-10-26T20:40:46.218Z,20.93
2022-10-26T20:43:19.877Z,20.33
2022-10-26T20:45:48.636Z,19.10
2022-10-26T20:48:17.396Z,18.77
2022-10-26T20:50:48.401Z,19.10
2022-10-26T20:53:20.284Z,17.50
2022-10-26T20:55:50.943Z,17.97
2022-10-26T20:58:22.727Z,18.37
2022-10-26T21:00:53.221Z,18.83
2022-10-26T21:03:21.502Z,19.60
2022-10-26T21:05:50.123Z,18.30
2022-10-26T21:08:18.258Z,17.73
2022-10-26T21:10:46.484Z,18.50
2022-10-26T21:13:14.694Z,19.07
2022-10-26T21:15:44.330Z,19.00
2022-10-26T21:18:12.446Z,18.67
2022-10-26T21:20:40.612Z,19.30
2022-10-26T21:23:08.758Z,19.17
2022-10-26T21:25:37.744Z,19.53
2022-10-26T21:28:06.882Z,19.77
2022-10-26T21:30:35.066Z,21.37
2022-10-26T21:33:04.657Z,20.57
2022-10-26T21:35:32.808Z,23.43
2022-10-26T21:38:01.021Z,25.40
2022-10-26T21:40:29.067Z,26.53
2022-10-26T21:42:57.183Z,27.53
2022-10-26T21:45:25.393Z,29.43
2022-10-26T21:47:53.811Z,27.50
2022-10-26T21:50:23.301Z,30.73
2022-10-26T21:52:54.179Z,30.47
2022-10-26T21:55:22.609Z,28.23
2022-10-26T21:57:53.459Z,30.90
2022-10-26T22:00:21.564Z,32.17
2022-10-26T22:02:49.849Z,29.37
2022-10-26T22:05:18.190Z,28.67
2022-10-26T22:07:47.836Z,30.63
2022-10-26T22:10:16.192Z,28.53
2022-10-26T22:12:44.362Z,26.37
2022-10-26T22:15:12.617Z,26.63
2022-10-26T22:17:40.931Z,25.30
2022-10-26T22:20:10.173Z,24.20
2022-10-26T22:22:38.294Z,23.30
2022-10-26T22:25:08.625Z,21.63
2022-10-26T22:27:36.991Z,23.53
2022-10-26T22:30:05.588Z,24.47
2022-10-26T22:32:33.849Z,24.60
2022-10-26T22:35:11.221Z,21.70
2022-10-26T22:37:50.076Z,23.87
2022-10-26T22:40:19.659Z,22.00
2022-10-26T22:42:47.814Z,22.53
2022-10-26T22:45:16.168Z,21.33
2022-10-26T22:47:44.342Z,22.60
2022-10-26T22:50:12.388Z,22.20
2022-10-26T22:52:40.594Z,22.60
2022-10-26T22:55:09.481Z,20.50
2022-10-26T22:57:39.023Z,20.43
2022-10-26T23:00:08.731Z,21.67
2022-10-26T23:02:36.793Z,20.47
2022-10-26T23:05:05.155Z,19.10
2022-10-26T23:07:33.509Z,21.17
2022-10-26T23:10:01.610Z,19.83
2022-10-26T23:12:29.821Z,20.57
2022-10-26T23:14:59.271Z,19.87
2022-10-26T23:17:27.444Z,20.07
2022-10-26T23:19:55.604Z,18.00
2022-10-26T23:22:23.881Z,19.10
2022-10-26T23:24:51.962Z,19.87
2022-10-26T23:27:20.230Z,20.50
2022-10-26T23:29:48.331Z,21.33
2022-10-26T23:32:17.817Z,19.93
2022-10-26T23:34:45.891Z,19.50
2022-10-26T23:37:15.034Z,19.00
2022-10-26T23:39:52.323Z,19.53
2022-10-26T23:42:20.465Z,19.83
2022-10-26T23:44:48.734Z,20.63
2022-10-26T23:47:18.306Z,20.43
2022-10-26T23:49:49.144Z,19.83
2022-10-26T23:52:17.413Z,19.80
2022-10-26T23:54:45.564Z,19.93
2022-10-26T23:57:13.785Z,21.03
2022-10-26T23:59:41.923Z,20.77
